Time;durP1;ratioP1;P1;durP2;ratioP2;P2;SDS_P1;SDS_P2;PMS_P1;PMS_P2;Temp;Humidity;BMP_temperature;BMP_pressure;BME280_temperature;BME280_humidity;BME280_pressure;Samples;Min_cycle;Max_cycle;Signal;HPM_P1;HPM_P2
2021/10/27 00:01:33;;;;;;;30.67;11.00;;;14.20;99.90;;;;;;5070122;28;25080;-75
2021/10/27 00:03:59;;;;;;;26.50;9.85;;;14.30;99.90;;;;;;5051446;28;25070;-76
2021/10/27 00:06:24;;;;;;;19.63;10.30;;;14.30;99.90;;;;;;5053098;28;25062;-76
2021/10/27 00:08:50;;;;;;;24.00;10.40;;;14.30;99.90;;;;;;5075002;28;25107;-75
2021/10/27 00:11:18;;;;;;;19.50;9.75;;;14.30;99.90;;;;;;5065057;28;25149;-76
2021/10/27 00:13:43;;;;;;;26.83;11.07;;;14.30;99.90;;;;;;5061248;28;25060;-75
2021/10/27 00:16:09;;;;;;;23.00;9.63;;;14.20;99.90;;;;;;5052675;28;25071;-76
2021/10/27 00:18:35;;;;;;;23.25;9.23;;;14.20;99.90;;;;;;5061102;28;25159;-75
2021/10/27 00:21:01;;;;;;;17.63;8.52;;;14.20;99.90;;;;;;5060773;28;25149;-74
2021/10/27 00:23:26;;;;;;;19.05;9.25;;;14.30;99.90;;;;;;5064316;28;25144;-74
2021/10/27 00:25:52;;;;;;;19.70;9.43;;;14.30;99.90;;;;;;5065409;28;25142;-75
2021/10/27 00:28:17;;;;;;;26.02;8.68;;;14.30;99.90;;;;;;5072564;28;25096;-74
2021/10/27 00:30:43;;;;;;;23.92;10.07;;;14.30;99.90;;;;;;5079834;28;25083;-74
2021/10/27 00:33:09;;;;;;;19.15;8.93;;;14.30;99.90;;;;;;5066972;28;25063;-75
2021/10/27 00:35:35;;;;;;;26.27;10.77;;;14.30;99.90;;;;;;5064813;28;25054;-75
2021/10/27 00:38:00;;;;;;;17.50;8.73;;;14.30;99.90;;;;;;5052410;28;25089;-75
2021/10/27 00:40:26;;;;;;;18.88;9.15;;;14.20;99.90;;;;;;5066651;28;25067;-75
2021/10/27 00:42:52;;;;;;;19.60;8.88;;;14.20;99.90;;;;;;5072037;28;25073;-74
2021/10/27 00:45:18;;;;;;;20.95;9.75;;;14.20;99.90;;;;;;5069052;28;25072;-73
2021/10/27 00:47:43;;;;;;;20.10;9.88;;;14.20;99.90;;;;;;5066025;28;25079;-74
2021/10/27 00:50:09;;;;;;;20.63;8.70;;;14.20;99.90;;;;;;5056657;28;25073;-76
2021/10/27 00:52:35;;;;;;;19.02;8.57;;;14.10;99.90;;;;;;5067921;28;25101;-75
2021/10/27 00:55:01;;;;;;;17.85;8.38;;;14.10;99.90;;;;;;5065586;28;25090;-76
2021/10/27 00:57:26;;;;;;;24.35;9.25;;;14.10;99.90;;;;;;5065269;28;25148;-74
2021/10/27 00:59:52;;;;;;;19.92;9.20;;;14.10;99.90;;;;;;5047928;28;25071;-73
2021/10/27 01:02:18;;;;;;;18.00;8.18;;;14.10;99.90;;;;;;5076313;28;25143;-73
2021/10/27 01:04:45;;;;;;;18.25;8.43;;;14.10;99.90;;;;;;5072299;28;25077;-74
2021/10/27 01:07:11;;;;;;;15.02;7.25;;;14.10;99.90;;;;;;5060364;28;25169;-75
2021/10/27 01:09:37;;;;;;;16.90;7.55;;;14.20;99.90;;;;;;5071009;28;25074;-74
2021/10/27 01:12:05;;;;;;;17.33;7.38;;;14.10;99.90;;;;;;5066984;28;25103;-73
2021/10/27 01:14:38;;;;;;;19.98;7.75;;;14.20;99.90;;;;;;5065840;28;25063;-74
2021/10/27 01:17:07;;;;;;;22.33;8.43;;;14.10;99.90;;;;;;5055838;28;25075;-73
2021/10/27 01:19:41;;;;;;;19.85;7.28;;;14.20;99.90;;;;;;5068062;28;25093;-75
2021/10/27 01:22:07;;;;;;;16.67;5.93;;;14.20;99.90;;;;;;5067836;28;25068;-73
2021/10/27 01:24:32;;;;;;;23.30;6.53;;;14.20;99.90;;;;;;5070723;28;25126;-76
2021/10/27 01:26:58;;;;;;;13.23;5.63;;;14.20;99.90;;;;;;5045528;28;25082;-75
2021/10/27 01:29:23;;;;;;;15.23;5.15;;;14.20;99.90;;;;;;5063484;28;25066;-74
2021/10/27 01:31:49;;;;;;;16.27;6.03;;;14.30;99.90;;;;;;5061321;28;25059;-74
2021/10/27 01:34:15;;;;;;;13.98;5.25;;;14.30;99.90;;;;;;5064822;28;25061;-75
2021/10/27 01:36:41;;;;;;;14.68;5.63;;;14.30;99.90;;;;;;5060069;28;25120;-74
2021/10/27 01:39:09;;;;;;;16.38;5.43;;;14.30;99.90;;;;;;5066556;28;25138;-74
2021/10/27 01:41:35;;;;;;;15.38;6.32;;;14.30;99.90;;;;;;5063673;28;25058;-75
2021/10/27 01:44:00;;;;;;;16.52;6.10;;;14.20;99.90;;;;;;5046700;28;25073;-75
2021/10/27 01:46:30;;;;;;;13.32;5.35;;;14.20;99.90;;;;;;5070196;28;25149;-73
2021/10/27 01:48:57;;;;;;;14.40;5.95;;;14.20;99.90;;;;;;5061074;28;25051;-75
2021/10/27 01:51:24;;;;;;;12.82;5.50;;;14.20;99.90;;;;;;5078383;28;25053;-76
2021/10/27 01:53:50;;;;;;;13.50;5.40;;;14.30;99.90;;;;;;5073358;28;25098;-74
2021/10/27 01:56:16;;;;;;;13.88;4.90;;;14.30;99.90;;;;;;5074327;28;25104;-74
2021/10/27 01:58:42;;;;;;;13.77;5.57;;;14.20;99.90;;;;;;5043529;28;25055;-75
2021/10/27 02:01:07;;;;;;;17.17;5.55;;;14.20;99.90;;;;;;5070238;28;25068;-75
2021/10/27 02:03:34;;;;;;;19.90;5.72;;;14.30;99.90;;;;;;5065636;28;25057;-75
2021/10/27 02:05:59;;;;;;;18.52;5.78;;;14.30;99.90;;;;;;5051182;28;25070;-73
2021/10/27 02:08:25;;;;;;;24.17;5.60;;;14.30;99.90;;;;;;5067120;28;25062;-74
2021/10/27 02:10:51;;;;;;;16.65;5.90;;;14.30;99.90;;;;;;5070568;28;25120;-75
2021/10/27 02:13:16;;;;;;;14.43;5.07;;;14.20;99.90;;;;;;5044964;28;25065;-74
2021/10/27 02:15:42;;;;;;;23.38;5.38;;;14.20;99.90;;;;;;5065585;28;25091;-76
2021/10/27 02:18:08;;;;;;;12.35;5.20;;;14.20;99.90;;;;;;5065810;28;25056;-74
2021/10/27 02:20:34;;;;;;;11.50;4.88;;;14.10;99.90;;;;;;5069671;28;25076;-74
2021/10/27 02:23:00;;;;;;;13.20;4.80;;;14.10;99.90;;;;;;5067280;28;25153;-72
2021/10/27 02:25:25;;;;;;;12.57;4.95;;;14.10;99.90;;;;;;5068830;28;25059;-75
2021/10/27 02:27:51;;;;;;;11.80;4.47;;;14.20;99.90;;;;;;5067006;28;25071;-74
2021/10/27 02:30:17;;;;;;;11.88;4.85;;;14.10;99.90;;;;;;5069082;28;25121;-74
2021/10/27 02:32:42;;;;;;;15.18;4.93;;;14.20;99.90;;;;;;5050653;28;25051;-74
2021/10/27 02:35:08;;;;;;;16.23;4.90;;;14.10;99.90;;;;;;5069115;28;25109;-76
2021/10/27 02:37:34;;;;;;;11.48;4.72;;;14.10;99.90;;;;;;5048947;28;25063;-76
2021/10/27 02:39:59;;;;;;;16.88;4.55;;;14.20;99.90;;;;;;5073721;28;25101;-74
2021/10/27 02:42:25;;;;;;;19.30;4.78;;;14.20;99.90;;;;;;5067592;28;25089;-75
2021/10/27 02:44:51;;;;;;;11.35;3.42;;;14.20;99.90;;;;;;5072515;28;25114;-75
2021/10/27 02:47:16;;;;;;;13.95;3.95;;;14.20;99.90;;;;;;5072507;28;25073;-75
2021/10/27 02:49:42;;;;;;;9.13;3.67;;;14.20;99.90;;;;;;5067405;28;25075;-74
2021/10/27 02:52:08;;;;;;;18.30;4.90;;;14.20;99.90;;;;;;5071397;28;25067;-74
2021/10/27 02:54:33;;;;;;;8.93;3.28;;;14.30;99.90;;;;;;5072201;28;25056;-73
2021/10/27 02:56:59;;;;;;;13.23;4.10;;;14.30;99.90;;;;;;5050407;28;25137;-74
2021/10/27 02:59:24;;;;;;;11.48;3.67;;;14.30;99.90;;;;;;5071106;28;25073;-74
2021/10/27 03:01:50;;;;;;;15.38;4.07;;;14.30;99.90;;;;;;5072073;28;25109;-75
2021/10/27 03:04:16;;;;;;;14.50;4.10;;;14.30;99.90;;;;;;5044324;28;25167;-73
2021/10/27 03:06:41;;;;;;;16.88;4.35;;;14.30;99.90;;;;;;5068991;28;25082;-73
2021/10/27 03:09:07;;;;;;;13.02;3.83;;;14.30;99.90;;;;;;5072161;28;25094;-74
2021/10/27 03:11:33;;;;;;;15.80;3.67;;;14.30;99.90;;;;;;5052434;28;25074;-74
2021/10/27 03:13:58;;;;;;;9.18;4.20;;;14.30;99.90;;;;;;5069907;28;25060;-75
2021/10/27 03:16:24;;;;;;;10.98;3.95;;;14.30;99.90;;;;;;5070974;28;25077;-75
2021/10/27 03:18:49;;;;;;;16.48;4.25;;;14.30;99.90;;;;;;5071249;28;25068;-75
2021/10/27 03:21:15;;;;;;;11.00;4.20;;;14.30;99.90;;;;;;5064566;28;25055;-75
2021/10/27 03:23:41;;;;;;;12.45;3.95;;;14.30;99.90;;;;;;5068470;28;25138;-75
2021/10/27 03:26:06;;;;;;;16.52;5.05;;;14.30;99.90;;;;;;5053792;28;25146;-74
2021/10/27 03:28:32;;;;;;;17.50;4.22;;;14.30;99.90;;;;;;5065110;28;25111;-75
2021/10/27 03:30:58;;;;;;;9.50;3.70;;;14.20;99.90;;;;;;5068636;28;25055;-74
2021/10/27 03:33:24;;;;;;;11.02;4.10;;;14.30;99.90;;;;;;5070892;28;25129;-74
2021/10/27 03:35:50;;;;;;;14.90;4.10;;;14.20;99.90;;;;;;5070292;28;25083;-74
2021/10/27 03:38:16;;;;;;;15.57;4.53;;;14.30;99.90;;;;;;5068891;28;25075;-74
2021/10/27 03:40:44;;;;;;;14.05;4.18;;;14.20;99.90;;;;;;5067359;28;25057;-75
2021/10/27 03:43:09;;;;;;;9.45;4.05;;;14.20;99.90;;;;;;5052639;28;25147;-74
2021/10/27 03:45:36;;;;;;;15.35;3.97;;;14.20;99.90;;;;;;5067575;28;25091;-76
2021/10/27 03:48:02;;;;;;;11.75;3.78;;;14.20;99.90;;;;;;5069473;28;25076;-76
2021/10/27 03:50:29;;;;;;;10.68;4.00;;;14.20;99.90;;;;;;5069995;28;25068;-73
2021/10/27 03:52:54;;;;;;;13.50;4.13;;;14.20;99.90;;;;;;5046432;28;25091;-75
2021/10/27 03:55:20;;;;;;;18.88;4.35;;;14.10;99.90;;;;;;5064554;28;25063;-76
2021/10/27 03:57:46;;;;;;;16.60;4.07;;;14.10;99.90;;;;;;5072702;28;25069;-75
2021/10/27 04:00:12;;;;;;;12.18;4.13;;;14.10;99.90;;;;;;5072641;28;25070;-74
2021/10/27 04:02:39;;;;;;;18.45;4.53;;;14.10;99.90;;;;;;5071154;28;25105;-73
2021/10/27 04:05:06;;;;;;;18.83;4.80;;;14.10;99.90;;;;;;5075796;28;25082;-74
2021/10/27 04:07:36;;;;;;;15.65;4.95;;;14.10;99.90;;;;;;5058044;28;25092;-75
2021/10/27 04:10:05;;;;;;;11.70;4.22;;;14.10;99.90;;;;;;5065840;28;25082;-73
2021/10/27 04:12:31;;;;;;;9.05;3.90;;;14.10;99.90;;;;;;5069564;28;25051;-74
2021/10/27 04:14:57;;;;;;;13.27;4.65;;;14.10;99.90;;;;;;5057247;28;25054;-73
2021/10/27 04:17:24;;;;;;;11.65;3.95;;;14.10;99.90;;;;;;5059503;28;25066;-74
2021/10/27 04:19:49;;;;;;;16.52;4.50;;;14.10;99.90;;;;;;5056961;28;25077;-73
2021/10/27 04:22:15;;;;;;;14.93;4.43;;;14.10;99.90;;;;;;5069293;28;25055;-72
2021/10/27 04:24:41;;;;;;;12.93;4.82;;;14.00;99.90;;;;;;5068120;28;25131;-73
2021/10/27 04:27:07;;;;;;;12.02;4.85;;;14.00;99.90;;;;;;5067706;28;25072;-73
2021/10/27 04:29:33;;;;;;;12.15;5.28;;;14.10;99.90;;;;;;5066828;28;25132;-73
2021/10/27 04:31:58;;;;;;;12.05;4.65;;;14.00;99.90;;;;;;5070384;28;25166;-74
2021/10/27 04:34:24;;;;;;;13.57;4.85;;;14.10;99.90;;;;;;5070565;28;25061;-74
2021/10/27 04:36:50;;;;;;;14.52;4.93;;;14.10;99.90;;;;;;5068659;28;25110;-74
2021/10/27 04:39:15;;;;;;;15.07;4.75;;;14.10;99.90;;;;;;5069201;28;25166;-73
2021/10/27 04:41:41;;;;;;;13.85;4.40;;;14.10;99.90;;;;;;5064496;28;25103;-74
2021/10/27 04:44:07;;;;;;;11.73;4.20;;;14.10;99.90;;;;;;5066164;28;25110;-74
2021/10/27 04:46:32;;;;;;;16.45;5.22;;;14.10;99.90;;;;;;5067766;28;25084;-74
2021/10/27 04:48:58;;;;;;;13.20;4.32;;;14.10;99.90;;;;;;5066486;28;25115;-74
2021/10/27 04:51:23;;;;;;;14.20;4.60;;;14.20;99.90;;;;;;5066397;28;25101;-75
2021/10/27 04:53:49;;;;;;;10.82;4.38;;;14.20;99.90;;;;;;5070511;28;25076;-75
2021/10/27 04:56:15;;;;;;;17.73;4.43;;;14.20;99.90;;;;;;5066860;28;25074;-74
2021/10/27 04:58:40;;;;;;;12.98;4.75;;;14.20;99.90;;;;;;5071899;28;25099;-74
2021/10/27 05:01:07;;;;;;;10.82;4.13;;;14.20;99.90;;;;;;5051292;28;25090;-75
2021/10/27 05:03:34;;;;;;;13.48;4.15;;;14.20;99.90;;;;;;5072835;28;25054;-75
2021/10/27 05:06:01;;;;;;;16.00;4.72;;;14.20;99.90;;;;;;5095104;28;25056;-75
2021/10/27 05:08:30;;;;;;;16.02;4.40;;;14.20;99.90;;;;;;5065450;28;25038;-74
2021/10/27 05:10:57;;;;;;;16.52;4.38;;;14.20;99.90;;;;;;5073155;28;25057;-74
2021/10/27 05:13:24;;;;;;;16.15;4.47;;;14.20;99.90;;;;;;5068387;28;25133;-73
2021/10/27 05:15:50;;;;;;;18.63;5.72;;;14.20;99.90;;;;;;5059431;28;25069;-74
2021/10/27 05:18:16;;;;;;;12.85;4.55;;;14.10;99.90;;;;;;5065785;28;25094;-74
2021/10/27 05:20:43;;;;;;;12.35;4.20;;;14.10;99.90;;;;;;5066801;28;25051;-78
2021/10/27 05:23:09;;;;;;;12.50;4.78;;;14.10;99.90;;;;;;5070030;28;25073;-75
2021/10/27 05:25:35;;;;;;;11.65;4.07;;;14.10;99.90;;;;;;5071275;28;25072;-74
2021/10/27 05:28:00;;;;;;;10.93;4.28;;;14.10;99.90;;;;;;5069637;28;25069;-75
2021/10/27 05:30:27;;;;;;;16.27;4.28;;;14.10;99.90;;;;;;5073244;28;25072;-73
2021/10/27 05:32:56;;;;;;;14.85;5.30;;;14.20;99.90;;;;;;5064879;28;25050;-74
2021/10/27 05:35:24;;;;;;;16.00;4.80;;;14.10;99.90;;;;;;5070622;28;25113;-76
2021/10/27 05:37:50;;;;;;;12.38;4.50;;;14.10;99.90;;;;;;5067111;28;25086;-74
2021/10/27 05:40:18;;;;;;;11.82;4.57;;;14.00;99.90;;;;;;5068707;28;24905;-77
2021/10/27 05:42:45;;;;;;;16.15;4.22;;;14.00;99.90;;;;;;5071388;28;25085;-75
2021/10/27 05:45:11;;;;;;;10.27;4.43;;;14.00;99.90;;;;;;5071386;28;25072;-77
2021/10/27 05:47:40;;;;;;;11.95;4.75;;;14.10;99.90;;;;;;5071405;28;25080;-74
2021/10/27 05:50:28;;;;;;;13.57;5.30;;;14.10;99.90;;;;;;5075837;28;25152;-75
2021/10/27 05:55:38;;;;;;;14.02;4.63;;;14.00;99.90;;;;;;5073236;28;25194;-76
2021/10/27 05:58:05;;;;;;;16.65;4.80;;;14.00;99.90;;;;;;5070765;28;25094;-74
2021/10/27 06:00:33;;;;;;;20.73;5.22;;;14.00;99.90;;;;;;5071818;28;25087;-75
2021/10/27 06:03:01;;;;;;;12.77;4.80;;;13.90;99.90;;;;;;5072684;28;25058;-73
2021/10/27 06:05:28;;;;;;;11.93;4.75;;;14.00;99.90;;;;;;5076726;28;25102;-74
2021/10/27 06:07:54;;;;;;;15.27;5.55;;;14.00;99.90;;;;;;5071233;28;25131;-73
2021/10/27 06:10:21;;;;;;;13.82;5.55;;;13.90;99.90;;;;;;5071711;28;25086;-76
2021/10/27 06:12:55;;;;;;;12.65;5.65;;;13.90;99.90;;;;;;5075472;28;25061;-76
2021/10/27 06:15:22;;;;;;;14.75;5.15;;;13.90;99.90;;;;;;5076188;28;25064;-75
2021/10/27 06:17:49;;;;;;;13.52;5.28;;;13.90;99.90;;;;;;5077394;28;25053;-75
2021/10/27 06:20:15;;;;;;;13.60;5.53;;;13.90;99.90;;;;;;5078008;28;25057;-75
2021/10/27 06:22:41;;;;;;;16.13;5.78;;;13.80;99.90;;;;;;5078223;28;25063;-73
2021/10/27 06:25:09;;;;;;;13.38;6.97;;;13.80;99.90;;;;;;5077994;28;25055;-73
2021/10/27 06:27:36;;;;;;;12.43;6.22;;;13.80;99.90;;;;;;5077827;28;25296;-75
2021/10/27 06:30:13;;;;;;;17.30;5.55;;;13.80;99.90;;;;;;5079351;28;25086;-76
2021/10/27 06:35:14;;;;;;;13.32;6.68;;;13.80;99.90;;;;;;5074862;28;25069;-73
2021/10/27 06:48:38;;;;;;;18.85;7.95;;;13.60;99.90;;;;;;4979915;28;25083;-72
2021/10/27 06:51:04;;;;;;;15.10;6.68;;;13.50;99.90;;;;;;5040141;28;25079;-75
2021/10/27 06:53:30;;;;;;;16.15;7.10;;;13.60;99.90;;;;;;5071688;28;25064;-75
2021/10/27 06:55:56;;;;;;;10.52;7.18;;;13.60;99.90;;;;;;5057558;28;25097;-73
2021/10/27 06:58:22;;;;;;;10.38;5.93;;;13.50;99.90;;;;;;5071977;28;25078;-75
2021/10/27 07:00:51;;;;;;;14.68;7.30;;;13.50;99.90;;;;;;5072803;28;25046;-74
2021/10/27 07:03:36;;;;;;;21.35;7.68;;;13.50;99.90;;;;;;5074874;28;25170;-74
2021/10/27 07:17:01;;;;;;;14.27;7.00;;;13.50;99.90;;;;;;5074119;28;25146;-76
2021/10/27 07:19:27;;;;;;;14.07;7.22;;;13.50;99.90;;;;;;5075063;28;25082;-74
2021/10/27 07:21:53;;;;;;;14.25;7.15;;;13.50;99.90;;;;;;5074789;28;25059;-73
2021/10/27 07:24:20;;;;;;;12.73;6.43;;;13.50;99.90;;;;;;5073232;28;25069;-75
2021/10/27 07:26:46;;;;;;;13.52;6.43;;;13.50;99.90;;;;;;5073198;28;25162;-73
2021/10/27 07:29:18;;;;;;;15.43;6.78;;;13.60;99.90;;;;;;5071016;28;25060;-74
2021/10/27 07:31:44;;;;;;;12.47;7.07;;;13.60;99.90;;;;;;5072178;28;25063;-73
2021/10/27 07:34:12;;;;;;;19.55;7.88;;;13.70;99.90;;;;;;5053313;28;25123;-75
2021/10/27 07:42:07;;;;;;;11.23;6.30;;;13.60;99.90;;;;;;5072642;28;25091;-75
2021/10/27 07:44:33;;;;;;;12.82;6.32;;;13.70;99.90;;;;;;5049477;28;25103;-76
2021/10/27 07:46:59;;;;;;;13.77;6.40;;;13.70;99.90;;;;;;5068202;28;25091;-75
2021/10/27 07:49:24;;;;;;;18.23;6.82;;;13.70;99.90;;;;;;5069064;28;25150;-76
2021/10/27 07:51:50;;;;;;;15.60;6.65;;;13.70;99.90;;;;;;5073080;28;25113;-76
2021/10/27 07:54:16;;;;;;;13.80;6.18;;;13.70;99.90;;;;;;5068388;28;25064;-73
2021/10/27 07:56:42;;;;;;;19.63;6.97;;;13.70;99.90;;;;;;5072643;28;25029;-75
2021/10/27 07:59:11;;;;;;;12.10;5.97;;;13.80;99.90;;;;;;5054136;28;25165;-75
2021/10/27 08:01:38;;;;;;;17.45;6.38;;;13.80;99.90;;;;;;5071944;28;25076;-77
2021/10/27 08:04:04;;;;;;;16.05;6.43;;;13.90;99.90;;;;;;5071903;28;25068;-77
2021/10/27 08:06:30;;;;;;;12.63;6.22;;;14.00;99.90;;;;;;5055222;28;25099;-82
2021/10/27 08:08:57;;;;;;;12.27;5.68;;;14.00;99.90;;;;;;5073978;28;25102;-77
2021/10/27 08:11:24;;;;;;;10.20;5.82;;;14.00;99.90;;;;;;5072685;28;25051;-75
2021/10/27 08:13:52;;;;;;;15.40;6.40;;;14.10;99.90;;;;;;5071509;28;25134;-75
2021/10/27 08:16:19;;;;;;;18.42;7.20;;;14.10;99.90;;;;;;5074822;28;25128;-75
2021/10/27 08:18:46;;;;;;;17.88;8.05;;;14.10;99.90;;;;;;5057060;28;25139;-76
2021/10/27 08:21:11;;;;;;;15.05;6.97;;;14.10;99.90;;;;;;5072343;28;25048;-74
2021/10/27 08:23:41;;;;;;;21.60;7.63;;;14.10;99.90;;;;;;5072315;28;25102;-75
2021/10/27 08:26:14;;;;;;;20.83;7.97;;;14.10;99.90;;;;;;5067423;28;25047;-77
2021/10/27 08:28:42;;;;;;;18.63;7.63;;;14.20;99.90;;;;;;5072555;28;25054;-75
2021/10/27 08:31:14;;;;;;;15.73;8.15;;;14.20;99.90;;;;;;5068526;28;25147;-76
2021/10/27 08:36:06;;;;;;;18.38;7.57;;;14.30;99.90;;;;;;5068230;28;25072;-76
2021/10/27 08:38:35;;;;;;;14.27;8.35;;;14.30;99.90;;;;;;5053328;28;25071;-75
2021/10/27 08:41:03;;;;;;;16.70;7.88;;;14.30;99.90;;;;;;5068716;28;25082;-73
2021/10/27 08:43:30;;;;;;;13.07;7.93;;;14.40;99.90;;;;;;5070637;28;25094;-75
2021/10/27 08:45:57;;;;;;;13.07;7.03;;;14.50;99.90;;;;;;5067985;28;25073;-73
2021/10/27 08:48:24;;;;;;;14.13;7.50;;;14.50;99.90;;;;;;5072227;28;25077;-74
2021/10/27 08:50:50;;;;;;;13.68;7.85;;;14.50;99.90;;;;;;5066756;28;25056;-74
2021/10/27 08:53:18;;;;;;;20.48;7.78;;;14.50;99.90;;;;;;5070720;28;25160;-75
2021/10/27 08:55:47;;;;;;;17.88;7.45;;;14.40;99.90;;;;;;5055068;28;25125;-76
2021/10/27 08:58:17;;;;;;;16.60;7.70;;;14.40;99.90;;;;;;5071333;28;25083;-76
2021/10/27 09:06:31;;;;;;;9.57;6.10;;;14.50;99.90;;;;;;5079987;28;25060;-75
2021/10/27 09:34:26;;;;;;;16.45;6.75;;;14.90;99.90;;;;;;5072929;28;25179;-75
2021/10/27 09:42:41;;;;;;;11.52;7.00;;;15.10;99.90;;;;;;5069928;28;25072;-75
2021/10/27 10:05:17;;;;;;;6.38;5.20;;;15.40;99.90;;;;;;5070140;28;25068;-76
2021/10/27 10:07:43;;;;;;;12.73;6.32;;;15.60;99.90;;;;;;5072455;28;25079;-76
2021/10/27 10:10:11;;;;;;;15.90;6.88;;;15.60;99.90;;;;;;5075129;28;25117;-74
2021/10/27 10:12:50;;;;;;;11.57;6.60;;;15.60;99.90;;;;;;5071802;28;25104;-76
2021/10/27 10:15:28;;;;;;;12.63;6.32;;;15.50;99.90;;;;;;5089565;28;25073;-76
2021/10/27 10:17:59;;;;;;;20.35;6.40;;;15.50;99.90;;;;;;5094728;28;25052;-74
2021/10/27 10:20:26;;;;;;;13.52;7.18;;;15.50;99.90;;;;;;5093179;28;25089;-75
2021/10/27 10:22:52;;;;;;;13.23;5.93;;;15.50;99.90;;;;;;5075449;28;25064;-76
2021/10/27 10:25:22;;;;;;;7.88;5.30;;;15.50;99.90;;;;;;5071888;28;25055;-74
2021/10/27 10:28:15;;;;;;;11.18;5.63;;;15.60;99.90;;;;;;5056752;28;25059;-76
2021/10/27 10:30:49;;;;;;;10.27;5.30;;;15.70;99.90;;;;;;5070788;28;25119;-76
2021/10/27 10:33:15;;;;;;;10.63;5.88;;;15.80;99.90;;;;;;5069330;28;25071;-77
2021/10/27 10:44:19;;;;;;;13.63;6.20;;;15.60;99.90;;;;;;5072291;28;25057;-76
2021/10/27 11:24:48;;;;;;;15.20;8.18;;;15.40;99.90;;;;;;5073315;28;25094;-76
2021/10/27 11:37:54;;;;;;;11.52;6.85;;;16.30;99.90;;;;;;5076543;28;25091;-77
2021/10/27 11:40:23;;;;;;;;;;;16.10;99.90;;;;;;5075279;28;25052;-78
2021/10/27 11:43:02;;;;;;;17.92;8.30;;;15.90;99.90;;;;;;5076020;28;24095;-72
2021/10/27 11:48:12;;;;;;;14.00;8.02;;;16.50;99.90;;;;;;5075920;28;25062;-77
2021/10/27 11:50:40;;;;;;;13.77;8.05;;;16.80;99.90;;;;;;5076087;28;25104;-76
2021/10/27 11:53:22;;;;;;;11.00;7.10;;;17.00;99.90;;;;;;5071869;28;25051;-76
2021/10/27 11:55:47;;;;;;;10.85;6.57;;;17.20;99.90;;;;;;5074660;28;25060;-76
2021/10/27 11:58:14;;;;;;;13.80;7.63;;;17.00;99.90;;;;;;5073840;28;25068;-75
2021/10/27 12:03:16;;;;;;;12.35;7.57;;;17.10;99.90;;;;;;5073755;28;25054;-75
2021/10/27 12:11:17;;;;;;;10.05;6.47;;;17.90;99.90;;;;;;5064969;28;25063;-76
2021/10/27 12:13:49;;;;;;;14.65;7.07;;;17.70;99.90;;;;;;5055116;28;25060;-76
2021/10/27 12:19:11;;;;;;;15.77;7.82;;;17.50;99.90;;;;;;5072261;28;25057;-77
2021/10/27 12:21:45;;;;;;;16.40;9.23;;;17.90;99.90;;;;;;5073369;28;25116;-77
2021/10/27 12:24:15;;;;;;;13.98;8.13;;;17.70;99.90;;;;;;5074743;28;25091;-77
2021/10/27 12:27:02;;;;;;;13.23;8.68;;;17.40;99.90;;;;;;5077282;28;25122;-75
2021/10/27 12:29:31;;;;;;;13.57;7.53;;;16.80;99.90;;;;;;5066560;28;25097;-77
2021/10/27 12:32:12;;;;;;;12.82;7.63;;;16.70;99.90;;;;;;5071993;28;25062;-74
2021/10/27 12:34:57;;;;;;;12.40;7.95;;;16.40;99.90;;;;;;5063292;28;25080;-76
2021/10/27 12:40:09;;;;;;;11.05;7.20;;;16.50;99.90;;;;;;5065544;28;25089;-76
2021/10/27 12:42:36;;;;;;;10.57;7.22;;;16.50;99.90;;;;;;5071152;28;25122;-76
2021/10/27 12:45:04;;;;;;;9.07;7.13;;;16.60;99.90;;;;;;5074244;28;25061;-76
2021/10/27 12:47:33;;;;;;;10.25;7.20;;;16.50;99.90;;;;;;5077043;28;25112;-76
2021/10/27 12:50:09;;;;;;;11.45;7.03;;;16.40;99.90;;;;;;5071440;28;25106;-76
2021/10/27 12:52:40;;;;;;;14.98;8.35;;;16.20;99.90;;;;;;5073973;28;25132;-76
2021/10/27 12:55:12;;;;;;;12.03;7.73;;;16.30;99.90;;;;;;5073995;28;25054;-77
2021/10/27 12:58:12;;;;;;;17.10;10.32;;;16.20;99.90;;;;;;5079047;28;25164;-76
2021/10/27 13:01:09;;;;;;;15.68;8.73;;;15.90;99.90;;;;;;5073054;28;25164;-76
2021/10/27 13:11:45;;;;;;;16.27;8.75;;;15.80;99.90;;;;;;5074201;28;25164;-77
2021/10/27 13:29:53;;;;;;;15.00;7.57;;;15.20;99.90;;;;;;5076883;28;25086;-75
2021/10/27 13:32:22;;;;;;;10.15;7.35;;;15.30;99.90;;;;;;5069495;28;25117;-76
2021/10/27 13:34:48;;;;;;;14.00;7.72;;;15.40;99.90;;;;;;5072565;28;25070;-76
2021/10/27 13:37:16;;;;;;;14.65;8.50;;;15.30;99.90;;;;;;5069462;28;25119;-75
2021/10/27 13:39:43;;;;;;;12.45;8.00;;;15.30;99.90;;;;;;5073416;28;25061;-76
2021/10/27 13:42:25;;;;;;;13.88;8.70;;;15.30;99.90;;;;;;5072128;28;25092;-75
2021/10/27 14:06:23;;;;;;;14.75;7.95;;;15.30;99.90;;;;;;5072642;28;25049;-76
2021/10/27 14:08:55;;;;;;;12.98;8.07;;;15.40;99.90;;;;;;5070800;28;25083;-78
2021/10/27 14:14:08;;;;;;;18.15;10.57;;;15.50;99.90;;;;;;5070421;28;25079;-78
2021/10/27 14:22:23;;;;;;;22.80;13.90;;;15.50;99.90;;;;;;5070769;28;25052;-77
2021/10/27 14:47:31;;;;;;;12.45;8.75;;;15.30;99.90;;;;;;5079560;28;25053;-78
2021/10/27 15:25:22;;;;;;;17.50;12.20;;;15.00;99.90;;;;;;5061691;28;25080;-76
2021/10/27 15:30:30;;;;;;;23.45;12.20;;;14.90;99.90;;;;;;5083105;28;25066;-75
2021/10/27 15:50:34;;;;;;;20.27;12.75;;;14.90;99.90;;;;;;4968450;28;25061;-76
2021/10/27 15:51:59;;;;;;;19.55;12.88;;;14.80;99.90;;;;;;5077759;28;25117;-77
2021/10/27 15:54:25;;;;;;;19.90;12.63;;;14.60;99.90;;;;;;5077638;28;25063;-76
2021/10/27 15:56:50;;;;;;;15.00;11.85;;;14.60;99.90;;;;;;5080763;28;25053;-78
2021/10/27 15:59:17;;;;;;;18.20;11.48;;;14.60;99.90;;;;;;5061089;28;25081;-75
2021/10/27 16:01:45;;;;;;;18.77;11.73;;;14.60;99.90;;;;;;5076236;28;25052;-77
2021/10/27 16:04:11;;;;;;;20.88;11.95;;;14.60;99.90;;;;;;5079135;28;25062;-76
2021/10/27 16:06:41;;;;;;;15.85;11.35;;;14.40;99.90;;;;;;5075901;28;25079;-77
2021/10/27 16:09:11;;;;;;;22.02;12.00;;;14.40;99.90;;;;;;5080785;28;25026;-76
2021/10/27 16:11:40;;;;;;;17.15;11.77;;;14.30;99.90;;;;;;5087028;28;25066;-75
2021/10/27 16:14:07;;;;;;;21.40;11.52;;;14.30;99.90;;;;;;5087873;28;25061;-76
2021/10/27 16:16:36;;;;;;;15.77;11.40;;;14.30;99.90;;;;;;5067216;28;25059;-76
2021/10/27 16:19:02;;;;;;;19.55;11.20;;;14.30;99.90;;;;;;5087584;28;25108;-78
2021/10/27 16:21:29;;;;;;;18.02;11.15;;;14.20;99.90;;;;;;5085192;28;25041;-74
2021/10/27 16:23:57;;;;;;;14.43;10.75;;;14.20;99.90;;;;;;5069250;28;25055;-77
2021/10/27 16:26:24;;;;;;;15.88;11.88;;;14.20;99.90;;;;;;5069778;28;25060;-77
2021/10/27 16:28:50;;;;;;;16.73;10.85;;;14.10;99.90;;;;;;5080164;28;25075;-78
2021/10/27 16:31:16;;;;;;;18.67;11.07;;;14.10;99.90;;;;;;5082784;28;25076;-78
2021/10/27 16:33:45;;;;;;;18.33;10.98;;;14.10;99.90;;;;;;5080442;28;25096;-77
2021/10/27 16:36:12;;;;;;;16.60;12.57;;;14.00;99.90;;;;;;5084752;28;25112;-78
2021/10/27 16:38:40;;;;;;;12.30;10.15;;;14.00;99.90;;;;;;5084389;28;25068;-76
2021/10/27 16:41:09;;;;;;;14.43;10.10;;;14.00;99.90;;;;;;5087481;28;25099;-76
2021/10/27 16:43:36;;;;;;;16.50;11.45;;;14.00;99.90;;;;;;5084536;28;25047;-76
2021/10/27 16:46:02;;;;;;;14.70;10.43;;;14.00;99.90;;;;;;5086589;28;25069;-73
2021/10/27 16:48:29;;;;;;;16.67;10.10;;;13.90;99.90;;;;;;5083103;28;25064;-76
2021/10/27 16:50:57;;;;;;;16.50;11.57;;;13.80;99.90;;;;;;5082198;28;25102;-77
2021/10/27 16:53:25;;;;;;;17.83;11.52;;;13.80;99.90;;;;;;5060484;28;25097;-76
2021/10/27 16:55:52;;;;;;;14.43;10.70;;;13.70;99.90;;;;;;5082460;28;25090;-77
2021/10/27 16:58:18;;;;;;;17.13;12.23;;;13.70;99.90;;;;;;5058913;28;25151;-76
2021/10/27 17:00:45;;;;;;;15.88;11.10;;;13.70;99.90;;;;;;5071718;28;25052;-77
2021/10/27 17:03:11;;;;;;;24.17;11.90;;;13.70;99.90;;;;;;5081791;28;25062;-77
2021/10/27 17:05:39;;;;;;;19.98;12.27;;;13.70;99.90;;;;;;5074950;28;25152;-78
2021/10/27 17:08:07;;;;;;;18.15;12.70;;;13.60;99.90;;;;;;5058603;28;25058;-78
2021/10/27 17:10:33;;;;;;;19.08;12.70;;;13.60;99.90;;;;;;5074101;28;25072;-76
2021/10/27 17:12:59;;;;;;;20.17;13.50;;;13.60;99.90;;;;;;5074805;28;25062;-79
2021/10/27 17:15:24;;;;;;;19.50;13.85;;;13.50;99.90;;;;;;5056540;28;25057;-77
2021/10/27 17:17:51;;;;;;;19.38;13.85;;;13.50;99.90;;;;;;5074380;28;25144;-77
2021/10/27 17:20:18;;;;;;;16.70;12.98;;;13.50;99.90;;;;;;5073831;28;25148;-77
2021/10/27 17:22:46;;;;;;;19.67;13.07;;;13.40;99.90;;;;;;5074466;28;25123;-79
2021/10/27 17:25:15;;;;;;;19.58;13.88;;;13.40;99.90;;;;;;5057052;28;25062;-78
2021/10/27 17:27:42;;;;;;;19.65;12.93;;;13.40;99.90;;;;;;5052877;28;25071;-77
2021/10/27 17:30:13;;;;;;;19.38;12.52;;;13.40;99.90;;;;;;5057741;28;25082;-74
2021/10/27 17:32:40;;;;;;;16.80;13.10;;;13.40;99.90;;;;;;5071253;28;25130;-76
2021/10/27 17:35:17;;;;;;;17.08;13.40;;;13.30;99.90;;;;;;5071593;28;25103;-77